createdAt,value
2022-08-14T00:02:27.794Z,19.20
2022-08-14T00:04:59.889Z,19.10
2022-08-14T00:07:28.340Z,19.10
2022-08-14T00:10:49.803Z,19.00
2022-08-14T00:12:54.798Z,19.00
2022-08-14T00:15:29.674Z,19.00
2022-08-14T00:18:06.804Z,18.90
2022-08-14T00:20:42.994Z,18.90
2022-08-14T00:23:16.715Z,18.80
2022-08-14T00:25:54.061Z,18.90
2022-08-14T00:28:32.606Z,18.70
2022-08-14T00:31:04.559Z,18.70
2022-08-14T00:33:52.402Z,18.70
2022-08-14T00:36:36.387Z,18.60
2022-08-14T00:39:09.667Z,18.70
2022-08-14T00:41:39.305Z,18.50
2022-08-14T00:44:09.462Z,18.50
2022-08-14T00:46:38.679Z,18.50
2022-08-14T00:49:08.341Z,18.40
2022-08-14T00:51:41.098Z,18.40
2022-08-14T00:54:16.951Z,18.30
2022-08-14T00:56:51.593Z,18.30
2022-08-14T00:59:27.443Z,18.20
2022-08-14T01:01:59.736Z,18.20
2022-08-14T01:04:51.770Z,18.20
2022-08-14T01:07:21.830Z,18.20
2022-08-14T01:09:51.433Z,18.20
2022-08-14T01:12:26.730Z,18.20
2022-08-14T01:15:00.180Z,18.20
2022-08-14T01:17:49.377Z,18.10
2022-08-14T01:20:39.231Z,18.10
2022-08-14T01:23:16.408Z,18.10
2022-08-14T01:25:51.053Z,18.10
2022-08-14T01:28:46.745Z,18.10
2022-08-14T01:31:12.237Z,18.10
2022-08-14T01:34:00.432Z,18.00
2022-08-14T01:36:39.101Z,18.00
2022-08-14T01:39:12.989Z,18.00
2022-08-14T01:41:43.947Z,18.00
2022-08-14T01:44:33.290Z,18.00
2022-08-14T01:47:12.358Z,18.00
2022-08-14T01:50:00.071Z,17.90
2022-08-14T01:52:34.778Z,17.90
2022-08-14T01:55:24.164Z,17.80
2022-08-14T01:58:01.445Z,17.90
2022-08-14T02:00:41.166Z,17.80
2022-08-14T02:03:09.807Z,17.80
2022-08-14T02:05:39.070Z,17.80
2022-08-14T02:08:10.177Z,17.80
2022-08-14T02:10:47.041Z,17.80
2022-08-14T02:13:19.568Z,17.70
2022-08-14T02:15:50.333Z,17.80
2022-08-14T02:18:19.517Z,17.70
2022-08-14T02:20:48.941Z,17.70
2022-08-14T02:23:29.173Z,17.70
2022-08-14T02:26:24.758Z,17.60
2022-08-14T02:29:03.525Z,17.80
2022-08-14T02:31:41.934Z,17.70
2022-08-14T02:34:21.880Z,17.70
2022-08-14T02:37:04.088Z,17.60
2022-08-14T02:39:36.956Z,17.60
2022-08-14T02:42:13.064Z,17.60
2022-08-14T02:44:48.891Z,17.60
2022-08-14T02:47:20.734Z,17.50
2022-08-14T02:49:54.824Z,17.50
2022-08-14T02:52:56.577Z,17.50
2022-08-14T02:55:15.645Z,17.50
2022-08-14T02:58:02.950Z,17.50
2022-08-14T03:00:35.484Z,17.40
2022-08-14T03:03:08.664Z,17.40
2022-08-14T03:05:41.160Z,17.40
2022-08-14T03:08:15.397Z,17.50
2022-08-14T03:10:48.634Z,17.30
2022-08-14T03:13:21.486Z,17.40
2022-08-14T03:15:56.311Z,17.30
2022-08-14T03:18:32.017Z,17.20
2022-08-14T03:21:07.863Z,17.20
2022-08-14T03:23:38.536Z,17.20
2022-08-14T03:26:13.002Z,17.20
2022-08-14T03:28:50.145Z,17.10
2022-08-14T03:31:22.438Z,17.10
2022-08-14T03:33:54.925Z,17.10
2022-08-14T03:37:38.094Z,17.10
2022-08-14T03:39:22.510Z,17.10
2022-08-14T03:41:53.784Z,17.10
2022-08-14T03:45:27.958Z,17.00
2022-08-14T03:47:15.464Z,16.90
2022-08-14T03:49:49.653Z,16.90
2022-08-14T03:52:38.556Z,16.90
2022-08-14T03:55:10.615Z,16.80
2022-08-14T03:57:40.767Z,16.80
2022-08-14T04:00:40.506Z,16.70
2022-08-14T04:03:03.259Z,16.70
2022-08-14T04:05:43.066Z,16.60
2022-08-14T04:08:30.017Z,16.60
2022-08-14T04:11:02.037Z,16.70
2022-08-14T04:13:34.397Z,16.60
2022-08-14T04:16:10.169Z,16.60
2022-08-14T04:18:42.691Z,16.60
2022-08-14T04:21:11.440Z,16.60
2022-08-14T04:23:40.712Z,16.60
2022-08-14T04:26:15.006Z,16.50
2022-08-14T04:29:08.502Z,16.50
2022-08-14T04:33:00.016Z,16.50
2022-08-14T04:34:33.752Z,16.50
2022-08-14T04:37:24.471Z,16.40
2022-08-14T04:40:12.241Z,16.40
2022-08-14T04:42:58.714Z,16.40
2022-08-14T04:45:32.798Z,16.40
2022-08-14T04:48:38.669Z,16.40
2022-08-14T04:51:05.873Z,16.40
2022-08-14T04:53:42.841Z,16.40
2022-08-14T04:56:31.553Z,16.50
2022-08-14T04:59:09.958Z,16.40
2022-08-14T05:01:41.631Z,16.50
2022-08-14T05:04:16.360Z,16.50
2022-08-14T05:06:49.286Z,16.50
2022-08-14T05:09:17.974Z,16.50
2022-08-14T05:11:47.450Z,16.50
2022-08-14T05:14:45.498Z,16.50
2022-08-14T05:17:07.003Z,16.60
2022-08-14T05:19:44.877Z,16.70
2022-08-14T05:22:27.044Z,16.60
2022-08-14T05:25:06.578Z,16.60
2022-08-14T05:27:36.207Z,16.70
2022-08-14T05:30:07.250Z,16.70
2022-08-14T05:32:36.983Z,16.70
2022-08-14T05:35:07.778Z,16.80
2022-08-14T05:37:36.431Z,16.80
2022-08-14T05:40:05.773Z,16.80
2022-08-14T05:42:35.207Z,16.90
2022-08-14T05:45:11.056Z,17.00
2022-08-14T05:47:42.904Z,17.00
2022-08-14T05:50:18.556Z,17.10
2022-08-14T05:52:50.345Z,17.10
2022-08-14T05:55:22.723Z,17.20
2022-08-14T05:57:53.953Z,17.30
2022-08-14T06:00:29.137Z,17.40
2022-08-14T06:02:59.997Z,17.50
2022-08-14T06:05:30.579Z,17.50
2022-08-14T06:07:59.770Z,17.70
2022-08-14T06:10:29.277Z,17.80
2022-08-14T06:12:58.715Z,17.90
2022-08-14T06:15:30.410Z,18.00
2022-08-14T06:18:00.354Z,18.20
2022-08-14T06:20:31.852Z,18.40
2022-08-14T06:23:02.863Z,18.50
2022-08-14T06:25:32.030Z,18.70
2022-08-14T06:28:03.927Z,18.90
2022-08-14T06:30:45.568Z,19.20
2022-08-14T06:33:15.880Z,19.40
2022-08-14T06:35:46.631Z,19.60
2022-08-14T06:38:17.867Z,20.00
2022-08-14T06:40:47.596Z,20.10
2022-08-14T06:43:17.272Z,20.30
2022-08-14T06:45:54.278Z,20.60
2022-08-14T06:48:26.567Z,20.80
2022-08-14T06:50:58.187Z,21.00
2022-08-14T06:53:28.037Z,21.30
2022-08-14T06:56:01.910Z,21.50
2022-08-14T06:58:32.524Z,21.70
2022-08-14T07:01:27.180Z,22.00
2022-08-14T07:04:22.785Z,22.20
2022-08-14T07:06:54.747Z,22.40
2022-08-14T07:09:27.667Z,22.60
2022-08-14T07:11:56.521Z,22.90
2022-08-14T07:14:26.552Z,23.20
2022-08-14T07:16:55.149Z,23.20
2022-08-14T07:19:24.200Z,23.40
2022-08-14T07:21:54.785Z,23.60
2022-08-14T07:24:31.080Z,23.80
2022-08-14T07:27:00.328Z,24.00
2022-08-14T07:29:30.121Z,24.10
2022-08-14T07:31:58.692Z,24.40
2022-08-14T07:34:40.736Z,24.60
2022-08-14T07:37:11.726Z,24.80
2022-08-14T07:39:40.289Z,25.00
2022-08-14T07:42:12.888Z,25.20
2022-08-14T07:44:46.566Z,25.30
2022-08-14T07:47:19.176Z,25.50
2022-08-14T07:49:59.871Z,25.70
2022-08-14T07:52:30.915Z,25.90
2022-08-14T07:55:02.196Z,26.10
2022-08-14T07:57:30.784Z,26.20
2022-08-14T07:59:59.191Z,26.30
2022-08-14T08:02:32.685Z,26.50
2022-08-14T08:05:02.534Z,26.60
2022-08-14T08:07:33.087Z,26.80
2022-08-14T08:10:46.320Z,26.80
2022-08-14T08:13:16.869Z,27.10
2022-08-14T08:15:47.088Z,27.20
2022-08-14T08:18:20.609Z,27.30
2022-08-14T08:20:59.615Z,27.50
2022-08-14T08:23:40.568Z,27.60
2022-08-14T08:26:15.439Z,27.60
2022-08-14T08:28:44.107Z,27.70
2022-08-14T08:31:13.662Z,27.90
2022-08-14T08:33:43.513Z,28.00
2022-08-14T08:36:18.841Z,28.10
2022-08-14T08:39:15.109Z,28.20
2022-08-14T08:41:43.448Z,28.40
2022-08-14T08:44:17.104Z,28.60
2022-08-14T08:47:01.675Z,28.90
2022-08-14T08:49:43.036Z,29.00
2022-08-14T08:52:25.071Z,29.20
2022-08-14T08:54:58.854Z,29.40
2022-08-14T08:57:27.364Z,29.60
2022-08-14T08:59:58.621Z,29.60
2022-08-14T09:02:27.950Z,29.70
2022-08-14T09:05:03.367Z,29.90
2022-08-14T09:07:31.927Z,29.90
2022-08-14T09:10:03.658Z,30.10
2022-08-14T09:12:35.223Z,30.20
2022-08-14T09:15:12.048Z,30.30
2022-08-14T09:17:42.333Z,30.40
2022-08-14T09:20:12.612Z,30.60
2022-08-14T09:22:47.928Z,30.70
2022-08-14T09:25:19.930Z,30.80
2022-08-14T09:28:07.997Z,30.90
2022-08-14T09:30:39.040Z,31.10
2022-08-14T09:33:32.768Z,31.30
2022-08-14T09:36:38.053Z,31.50
2022-08-14T09:39:22.930Z,31.60
2022-08-14T09:42:17.832Z,31.80
2022-08-14T09:45:15.221Z,31.90
2022-08-14T09:47:49.058Z,32.00
2022-08-14T09:50:20.378Z,32.10
2022-08-14T09:52:54.929Z,32.20
2022-08-14T09:55:28.064Z,32.20
2022-08-14T09:58:09.976Z,32.30
2022-08-14T10:00:50.464Z,32.30
2022-08-14T10:03:33.901Z,32.40
2022-08-14T10:06:07.566Z,32.50
2022-08-14T10:08:50.865Z,32.60
2022-08-14T10:11:23.498Z,32.60
2022-08-14T10:13:56.934Z,32.70
2022-08-14T10:16:33.630Z,32.80
2022-08-14T10:19:09.966Z,32.80
2022-08-14T10:21:58.626Z,32.90
2022-08-14T10:24:36.201Z,33.00
2022-08-14T10:27:16.439Z,33.10
2022-08-14T10:29:50.247Z,33.20
2022-08-14T10:32:28.504Z,33.30
2022-08-14T10:35:13.600Z,33.40
2022-08-14T10:37:48.117Z,33.60
2022-08-14T10:40:43.645Z,33.70
2022-08-14T10:43:22.737Z,33.80
2022-08-14T10:45:59.674Z,34.00
2022-08-14T10:48:36.890Z,34.10
2022-08-14T10:51:08.584Z,34.20
2022-08-14T10:53:40.125Z,34.20
2022-08-14T10:56:21.496Z,34.30
2022-08-14T10:59:04.839Z,34.30
2022-08-14T11:01:40.906Z,34.40
2022-08-14T11:04:25.935Z,34.50
2022-08-14T11:06:56.616Z,34.60
2022-08-14T11:09:26.559Z,34.70
2022-08-14T11:12:34.392Z,34.80
2022-08-14T11:14:59.545Z,34.80
2022-08-14T11:17:33.149Z,35.00
2022-08-14T11:20:03.359Z,35.10
2022-08-14T11:22:55.994Z,35.20
2022-08-14T11:25:23.956Z,35.20
2022-08-14T11:27:53.997Z,35.40
2022-08-14T11:30:50.952Z,35.50
2022-08-14T11:33:16.692Z,35.50
2022-08-14T11:35:49.648Z,35.60
2022-08-14T11:38:21.406Z,35.70
2022-08-14T11:40:50.023Z,35.90
2022-08-14T11:43:22.808Z,36.00
2022-08-14T11:45:59.201Z,36.20
2022-08-14T11:49:02.643Z,36.40
2022-08-14T11:51:26.027Z,36.50
2022-08-14T11:54:03.880Z,36.70
2022-08-14T11:56:36.845Z,36.90
2022-08-14T11:59:10.256Z,37.00
2022-08-14T12:01:41.362Z,37.10
2022-08-14T12:04:32.323Z,37.20
2022-08-14T12:07:03.481Z,37.20
2022-08-14T12:09:35.992Z,37.40
2022-08-14T12:12:16.304Z,37.30
2022-08-14T12:15:06.997Z,36.90
2022-08-14T12:17:50.415Z,36.50
2022-08-14T12:20:31.900Z,36.10
2022-08-14T12:23:02.698Z,35.70
2022-08-14T12:25:35.591Z,35.30
2022-08-14T12:28:27.135Z,35.30
2022-08-14T12:31:00.867Z,35.40
2022-08-14T12:33:33.732Z,35.70
2022-08-14T12:36:08.248Z,35.80
2022-08-14T12:38:41.184Z,36.00
2022-08-14T12:41:20.355Z,36.20
2022-08-14T12:43:53.369Z,36.50
2022-08-14T12:46:27.342Z,36.80
2022-08-14T12:48:59.830Z,37.10
2022-08-14T12:51:30.888Z,37.40
2022-08-14T12:54:01.288Z,37.60
2022-08-14T12:56:33.303Z,37.80
2022-08-14T12:59:03.256Z,38.10
2022-08-14T13:02:00.338Z,38.30
2022-08-14T13:04:22.987Z,38.50
2022-08-14T13:06:53.758Z,38.70
2022-08-14T13:09:27.905Z,38.90
2022-08-14T13:12:35.235Z,39.00
2022-08-14T13:14:58.867Z,39.20
2022-08-14T13:17:28.616Z,39.30
2022-08-14T13:20:09.995Z,39.30
2022-08-14T13:22:44.374Z,39.40
2022-08-14T13:25:15.711Z,39.50
2022-08-14T13:27:47.635Z,39.50
2022-08-14T13:30:23.490Z,39.70
2022-08-14T13:32:53.836Z,39.80
2022-08-14T13:35:23.081Z,39.80
2022-08-14T13:37:54.001Z,39.80
2022-08-14T13:40:26.503Z,39.80
2022-08-14T13:42:57.170Z,39.90
2022-08-14T13:45:59.233Z,40.00
2022-08-14T13:48:27.298Z,40.00
2022-08-14T13:51:04.113Z,39.90
2022-08-14T13:53:41.336Z,39.50
2022-08-14T13:56:14.613Z,39.20
2022-08-14T13:58:46.978Z,38.50
2022-08-14T14:01:18.988Z,38.20
2022-08-14T14:03:53.698Z,38.10
2022-08-14T14:06:25.201Z,38.20
2022-08-14T14:08:59.106Z,38.30
2022-08-14T14:11:30.703Z,38.50
2022-08-14T14:14:00.578Z,38.70
2022-08-14T14:16:30.965Z,38.80
2022-08-14T14:19:09.901Z,39.00
2022-08-14T14:21:40.393Z,39.20
2022-08-14T14:24:14.929Z,39.30
2022-08-14T14:26:46.416Z,39.30
2022-08-14T14:29:15.207Z,39.30
2022-08-14T14:31:48.821Z,39.20
2022-08-14T14:34:29.741Z,39.10
2022-08-14T14:37:02.877Z,39.00
2022-08-14T14:39:37.562Z,38.60
2022-08-14T14:42:13.732Z,38.10
2022-08-14T14:44:53.036Z,37.70
2022-08-14T14:47:26.567Z,37.10
2022-08-14T14:49:57.753Z,36.90
2022-08-14T14:52:28.663Z,36.80
2022-08-14T14:54:59.544Z,37.00
2022-08-14T14:57:35.006Z,36.80
2022-08-14T15:00:08.712Z,36.80
2022-08-14T15:02:42.569Z,36.90
2022-08-14T15:05:14.116Z,36.90
2022-08-14T15:07:43.377Z,36.90
2022-08-14T15:10:27.638Z,36.90
2022-08-14T15:13:03.562Z,36.70
2022-08-14T15:15:33.500Z,36.40
2022-08-14T15:18:14.892Z,36.00
2022-08-14T15:20:57.489Z,35.60
2022-08-14T15:23:32.443Z,35.20
2022-08-14T15:26:24.530Z,35.00
2022-08-14T15:29:05.027Z,34.80
2022-08-14T15:31:35.976Z,34.60
2022-08-14T15:34:44.143Z,34.50
2022-08-14T15:37:04.770Z,34.40
2022-08-14T15:39:35.740Z,34.30
2022-08-14T15:42:14.611Z,34.20
2022-08-14T15:44:57.507Z,34.20
2022-08-14T15:47:29.508Z,34.10
2022-08-14T15:49:59.659Z,34.00
2022-08-14T15:52:34.429Z,33.90
2022-08-14T15:55:15.172Z,33.90
2022-08-14T15:58:02.185Z,33.80
2022-08-14T16:00:51.592Z,33.80
2022-08-14T16:03:27.612Z,33.70
2022-08-14T16:06:04.155Z,33.70
2022-08-14T16:08:32.679Z,33.60
2022-08-14T16:11:03.542Z,33.60
2022-08-14T16:13:39.824Z,33.60
2022-08-14T16:16:49.741Z,33.60
2022-08-14T16:19:07.198Z,33.70
2022-08-14T16:22:01.823Z,33.70
2022-08-14T16:25:00.412Z,33.80
2022-08-14T16:30:27.450Z,33.80
2022-08-14T16:32:59.110Z,33.80
2022-08-14T16:35:42.489Z,33.70
2022-08-14T16:38:45.492Z,33.60
2022-08-14T16:40:24.352Z,33.80
2022-08-14T16:41:18.231Z,33.60
2022-08-14T16:43:53.439Z,33.50
2022-08-14T16:46:23.851Z,33.50
2022-08-14T16:48:55.192Z,33.40
2022-08-14T16:51:27.968Z,33.30
2022-08-14T16:53:58.802Z,33.20
2022-08-14T16:56:30.883Z,33.10
2022-08-14T16:59:12.275Z,32.90
2022-08-14T17:01:44.468Z,32.80
2022-08-14T17:04:25.050Z,32.70
2022-08-14T17:06:55.384Z,32.50
2022-08-14T17:09:34.009Z,32.40
2022-08-14T17:12:07.335Z,32.20
2022-08-14T17:14:54.030Z,32.10
2022-08-14T17:17:28.888Z,32.00
2022-08-14T17:20:08.918Z,31.80
2022-08-14T17:22:53.505Z,31.80
2022-08-14T17:25:24.852Z,31.70
2022-08-14T17:28:50.615Z,31.50
2022-08-14T17:31:02.849Z,31.50
2022-08-14T17:33:40.847Z,31.40
2022-08-14T17:36:20.902Z,31.30
2022-08-14T17:39:06.956Z,31.20
2022-08-14T17:41:38.630Z,31.20
2022-08-14T17:44:34.370Z,31.10
2022-08-14T17:47:10.348Z,31.00
2022-08-14T17:49:52.268Z,30.90
2022-08-14T17:52:34.664Z,30.80
2022-08-14T17:55:06.938Z,30.70
2022-08-14T17:57:41.234Z,30.50
2022-08-14T18:00:12.880Z,30.40
2022-08-14T18:02:50.502Z,30.30
2022-08-14T18:05:23.463Z,30.10
2022-08-14T18:08:32.038Z,30.00
2022-08-14T18:11:00.160Z,29.80
2022-08-14T18:13:52.058Z,29.70
2022-08-14T18:16:20.236Z,29.50
2022-08-14T18:18:52.124Z,29.40
2022-08-14T18:21:41.868Z,29.10
2022-08-14T18:24:28.392Z,29.00
2022-08-14T18:27:09.148Z,29.00
2022-08-14T18:29:44.761Z,28.80
2022-08-14T18:32:56.888Z,28.60
2022-08-14T18:35:46.204Z,28.40
2022-08-14T18:38:55.092Z,28.20
2022-08-14T18:41:37.529Z,28.10
2022-08-14T18:44:10.060Z,28.00
2022-08-14T18:47:16.059Z,27.80
2022-08-14T18:50:27.122Z,27.70
2022-08-14T18:52:54.731Z,27.50
2022-08-14T18:55:53.354Z,27.40
2022-08-14T18:58:33.869Z,27.30
2022-08-14T19:01:04.365Z,27.20
2022-08-14T19:03:57.434Z,27.00
2022-08-14T19:06:38.201Z,26.90
2022-08-14T19:09:08.532Z,26.80
2022-08-14T19:11:50.283Z,26.60
2022-08-14T19:14:47.459Z,26.50
2022-08-14T19:17:42.129Z,26.40
2022-08-14T19:20:12.483Z,26.30
2022-08-14T19:22:42.765Z,26.20
2022-08-14T19:25:13.845Z,26.10
2022-08-14T19:27:46.520Z,26.00
2022-08-14T19:30:24.009Z,25.90
2022-08-14T19:32:57.064Z,25.90
2022-08-14T19:35:55.147Z,25.80
2022-08-14T19:38:57.547Z,25.70
2022-08-14T19:41:29.878Z,25.70
2022-08-14T19:44:20.476Z,25.70
2022-08-14T19:47:06.151Z,25.50
2022-08-14T19:50:24.379Z,25.50
2022-08-14T19:52:37.197Z,25.40
2022-08-14T19:55:16.224Z,25.30
2022-08-14T19:57:52.341Z,25.20
2022-08-14T20:00:30.189Z,25.10
2022-08-14T20:03:10.671Z,25.00
2022-08-14T20:05:45.937Z,24.90
2022-08-14T20:11:00.607Z,24.80
2022-08-14T20:11:20.821Z,24.80
2022-08-14T20:14:00.114Z,24.80
2022-08-14T20:16:36.729Z,24.60
2022-08-14T20:19:17.632Z,24.60
2022-08-14T20:21:58.558Z,24.50
2022-08-14T20:24:41.084Z,24.50
2022-08-14T20:27:22.521Z,24.40
2022-08-14T20:30:29.499Z,24.40
2022-08-14T20:33:07.941Z,24.40
2022-08-14T20:35:44.523Z,24.30
2022-08-14T20:38:30.794Z,24.20
2022-08-14T20:41:06.900Z,24.20
2022-08-14T20:43:57.520Z,24.10
2022-08-14T20:46:30.494Z,24.10
2022-08-14T20:49:04.632Z,24.10
2022-08-14T20:51:43.615Z,24.00
2022-08-14T20:54:34.324Z,23.90
2022-08-14T20:57:09.568Z,23.80
2022-08-14T20:59:43.431Z,23.80
2022-08-14T21:02:38.742Z,23.70
2022-08-14T21:05:33.389Z,23.70
2022-08-14T21:08:08.035Z,23.60
2022-08-14T21:10:44.114Z,23.60
2022-08-14T21:14:09.009Z,23.50
2022-08-14T21:16:34.375Z,23.50
2022-08-14T21:18:59.984Z,23.50
2022-08-14T21:21:40.598Z,23.40
2022-08-14T21:24:39.726Z,23.40
2022-08-14T21:27:12.339Z,23.40
2022-08-14T21:29:55.650Z,23.30
2022-08-14T21:32:50.134Z,23.20
2022-08-14T21:35:28.559Z,23.10
2022-08-14T21:37:58.067Z,23.10
2022-08-14T21:40:41.609Z,23.00
2022-08-14T21:43:17.823Z,23.00
2022-08-14T21:45:53.327Z,22.90
2022-08-14T21:48:25.417Z,23.00
2022-08-14T21:51:01.992Z,22.90
2022-08-14T21:53:59.380Z,22.80
2022-08-14T21:56:38.653Z,22.80
2022-08-14T21:59:11.748Z,22.70
2022-08-14T22:02:01.194Z,22.70
2022-08-14T22:04:39.905Z,22.60
2022-08-14T22:07:13.011Z,22.60
2022-08-14T22:09:54.665Z,22.60
2022-08-14T22:12:45.203Z,22.60
2022-08-14T22:15:16.346Z,22.60
2022-08-14T22:17:52.184Z,22.60
2022-08-14T22:20:22.817Z,22.60
2022-08-14T22:22:56.124Z,22.60
2022-08-14T22:25:33.424Z,22.60
2022-08-14T22:28:05.650Z,22.50
2022-08-14T22:30:36.830Z,22.50
2022-08-14T22:33:06.629Z,22.50
2022-08-14T22:35:38.782Z,22.50
2022-08-14T22:38:37.327Z,22.50
2022-08-14T22:41:25.233Z,22.50
2022-08-14T22:43:45.442Z,22.40
2022-08-14T22:46:20.108Z,22.40
2022-08-14T22:48:50.942Z,22.40
2022-08-14T22:51:22.664Z,22.30
2022-08-14T22:53:55.012Z,22.20
2022-08-14T22:56:30.501Z,22.30
2022-08-14T22:59:01.298Z,22.20
2022-08-14T23:01:56.788Z,22.20
2022-08-14T23:04:35.061Z,22.10
2022-08-14T23:07:21.873Z,22.10
2022-08-14T23:10:31.996Z,22.10
2022-08-14T23:12:54.152Z,22.10
2022-08-14T23:15:28.840Z,22.10
2022-08-14T23:17:59.019Z,22.00
2022-08-14T23:20:29.280Z,21.90
2022-08-14T23:22:58.896Z,21.90
2022-08-14T23:25:44.669Z,21.90
2022-08-14T23:28:33.746Z,22.00
2022-08-14T23:31:14.161Z,21.80
2022-08-14T23:33:51.852Z,21.80
2022-08-14T23:36:31.500Z,21.80
2022-08-14T23:39:02.027Z,21.80
2022-08-14T23:41:46.488Z,21.80
2022-08-14T23:44:23.777Z,21.80
2022-08-14T23:46:57.048Z,21.80
2022-08-14T23:49:56.897Z,21.80
2022-08-14T23:52:50.647Z,21.70
2022-08-14T23:55:11.312Z,21.80
2022-08-14T23:57:44.004Z,21.70
